Zaliv Vostok — A8RM6 — position and weather

sailwx.info

Track history (hours):
 
Tides and Currents Weather Stations Pressure Air Temp Water Temp Dewpoint Dewpoint Depression Visibility Wind Speed Wind Dir Waves Ship Positions

Zaliv Vostok

Last reported at 2014-Nov-21 21:17 UTC. Time now 2014-Nov-25 23:16 UTC.
Position N 36°12' E 014°43'.

Length 243 m; draft 13.6 m.

Type: Tanker. MMSI: 636014127.

Date/timePositionNaut miles runAvg speedWind from/ knotsBaromVisibWave heightAir tempDewpointWater temp
2014-Nov-21 21:17N 36°12' E 014°43'810.5
2014-Nov-21 20:34N 36°15' E 014°34'9510.4
2014-Nov-21 11:24N 36°47' E 012°43'17710.4
2014-Nov-20 18:18N 37°37' E 009°10'1910.5
2014-Nov-20 16:32N 37°37' E 008°46'14 9.6
2014-Nov-20 15:05N 37°37' E 008°29'5 9.8
2014-Nov-20 14:33N 37°37' E 008°22'11 9.6
2014-Nov-20 13:27N 37°36' E 008°09'11 9.7
2014-Nov-20 12:17N 37°36' E 007°55'810.1
2014-Nov-20 11:33N 37°37' E 007°45'10410.4
2014-Nov-20 01:33N 37°34' E 005°34'20 9.9
2014-Nov-19 23:30N 37°32' E 005°09'11 9.8
2014-Nov-19 22:25N 37°30' E 004°55'11 9.9
2014-Nov-19 21:19N 37°29' E 004°42'810.1
2014-Nov-19 20:33N 37°28' E 004°32'2010.1
2014-Nov-19 18:32N 37°25' E 004°07'1010.1
2014-Nov-19 17:30N 37°24' E 003°54'1010.3
2014-Nov-19 16:32N 37°22' E 003°41'8610.5
2014-Nov-19 08:24N 37°05' E 001°56'35310.7
2014-Nov-17 23:33N 36°00' W 005°16'1212.0
2014-Nov-17 22:33N 35°57' W 005°30'  
2014-Nov-11 21:23N 50°32' E 000°01'  
Track history (hours):
 
Tides and Currents Weather Stations Pressure Air Temp Water Temp Dewpoint Dewpoint Depression Visibility Wind Speed Wind Dir Waves Ship Positions

Zaliv Vostok

Last reported at 2014-Nov-21 21:17 UTC. Time now 2014-Nov-25 23:16 UTC.
Position N 36°12' E 014°43'.

Length 243 m; draft 13.6 m.

Type: Tanker. MMSI: 636014127.

Date/timePositionNaut miles runAvg speedWind from/ knotsBaromVisibWave heightAir tempDewpointWater temp
2014-Nov-21 21:17N 36°12' E 014°43'810.5
2014-Nov-21 20:34N 36°15' E 014°34'9510.4
2014-Nov-21 11:24N 36°47' E 012°43'17710.4
2014-Nov-20 18:18N 37°37' E 009°10'1910.5
2014-Nov-20 16:32N 37°37' E 008°46'14 9.6
2014-Nov-20 15:05N 37°37' E 008°29'5 9.8
2014-Nov-20 14:33N 37°37' E 008°22'11 9.6
2014-Nov-20 13:27N 37°36' E 008°09'11 9.7
2014-Nov-20 12:17N 37°36' E 007°55'810.1
2014-Nov-20 11:33N 37°37' E 007°45'10410.4
2014-Nov-20 01:33N 37°34' E 005°34'20 9.9
2014-Nov-19 23:30N 37°32' E 005°09'11 9.8
2014-Nov-19 22:25N 37°30' E 004°55'11 9.9
2014-Nov-19 21:19N 37°29' E 004°42'810.1
2014-Nov-19 20:33N 37°28' E 004°32'2010.1
2014-Nov-19 18:32N 37°25' E 004°07'1010.1
2014-Nov-19 17:30N 37°24' E 003°54'1010.3
2014-Nov-19 16:32N 37°22' E 003°41'8610.5
2014-Nov-19 08:24N 37°05' E 001°56'35310.7
2014-Nov-17 23:33N 36°00' W 005°16'1212.0
2014-Nov-17 22:33N 35°57' W 005°30'  
2014-Nov-11 21:23N 50°32' E 000°01'  

Dump ship's entire track history